Namaka, Canada
Current Conditions -  °F | °C
As of 7:00 AM on Thursday 29 Jan 2015 (Local Time) from CYYC Reporting Station
Few Clouds Few Clouds  
Wind Chill: 25°   Ceiling: Unl
Heat Index: 25°   Visibility: 15mi
Dew Point: 21°   Wind: 2mph
Humidity: 86%   Direction: 230°SW
Pressure: 30.23"   Gusts: NA
Location:  50.96°N, 113.29°W
Report Text: CYYC 291400Z 23002KT 15SM FEW220 M04/M06 A3023 RMK CI1 SLP291
Loading
Personal Weather Stations






























Interactive Weather Map New forecast layout! Learn more

10-Day Weather Forecast

Advertisements
Track Severe Weather on mobile